KBEC/BEC METAR and TAF weather

Enter ICAO airport designator
Station Type Date Time Source
KBEC METAR 2021/05/15 02:15 UTC NOAA

KBEC 150215Z AUTO 12006KT 10SM CLR 17/13 A3006 RMK AO2 T01650128


Station Type Date Time Source
KBEC Decoded METAR 2021/05/15 02:15 UTC NOAA

Station name not available
May 14, 2021 - 10:15 PM EDT / 2021.05.15 0215 UTC
Wind: from the ESE (120 degrees) at 7 MPH (6 KT):0
Visibility: 10 mile(s):0
Sky conditions: clear
Temperature: 61.7 F (16.5 C)
Dew Point: 55.0 F (12.8 C)
Relative Humidity: 78%
Pressure (altimeter): 30.06 in. Hg (1017 hPa)
ob: KBEC 150215Z AUTO 12006KT 10SM CLR 17/13 A3006 RMK AO2 T01650128
cycle: 2

Station Type Date Time Source
KBEC TAF UTC NOAA

Error!

Example: see airport list